sensor_id;sensor_type;location;lat;lon;timestamp;P1;durP1;ratioP1;P2;durP2;ratioP2
9467;SDS011;4772;52.382;9.752;2023-05-07T00:01:45;22.00;;;17.27;;
9467;SDS011;4772;52.382;9.752;2023-05-07T00:04:11;20.77;;;16.60;;
9467;SDS011;4772;52.382;9.752;2023-05-07T00:06:38;19.50;;;16.93;;
9467;SDS011;4772;52.382;9.752;2023-05-07T00:09:04;20.03;;;17.90;;
9467;SDS011;4772;52.382;9.752;2023-05-07T00:11:30;21.13;;;17.97;;
9467;SDS011;4772;52.382;9.752;2023-05-07T00:13:56;21.13;;;17.03;;
9467;SDS011;4772;52.382;9.752;2023-05-07T00:16:22;22.83;;;17.07;;
9467;SDS011;4772;52.382;9.752;2023-05-07T00:18:48;22.23;;;17.07;;
9467;SDS011;4772;52.382;9.752;2023-05-07T00:21:14;22.97;;;18.43;;
9467;SDS011;4772;52.382;9.752;2023-05-07T00:23:40;22.07;;;19.03;;
9467;SDS011;4772;52.382;9.752;2023-05-07T00:26:06;20.97;;;18.13;;
9467;SDS011;4772;52.382;9.752;2023-05-07T00:28:32;20.77;;;17.37;;
9467;SDS011;4772;52.382;9.752;2023-05-07T00:30:58;21.20;;;18.40;;
9467;SDS011;4772;52.382;9.752;2023-05-07T00:33:24;22.67;;;18.67;;
9467;SDS011;4772;52.382;9.752;2023-05-07T00:35:51;22.07;;;16.80;;
9467;SDS011;4772;52.382;9.752;2023-05-07T00:38:19;20.27;;;17.33;;
9467;SDS011;4772;52.382;9.752;2023-05-07T00:40:45;24.73;;;18.93;;
9467;SDS011;4772;52.382;9.752;2023-05-07T00:43:11;23.10;;;19.00;;
9467;SDS011;4772;52.382;9.752;2023-05-07T00:45:37;21.37;;;17.97;;
9467;SDS011;4772;52.382;9.752;2023-05-07T00:48:03;24.97;;;18.73;;
9467;SDS011;4772;52.382;9.752;2023-05-07T00:50:30;23.97;;;19.03;;
9467;SDS011;4772;52.382;9.752;2023-05-07T00:52:56;25.73;;;19.70;;
9467;SDS011;4772;52.382;9.752;2023-05-07T00:55:22;24.87;;;19.93;;
9467;SDS011;4772;52.382;9.752;2023-05-07T00:57:49;24.13;;;19.47;;
9467;SDS011;4772;52.382;9.752;2023-05-07T01:00:15;24.13;;;20.03;;
9467;SDS011;4772;52.382;9.752;2023-05-07T01:02:42;25.30;;;20.60;;
9467;SDS011;4772;52.382;9.752;2023-05-07T01:05:09;23.40;;;19.57;;
9467;SDS011;4772;52.382;9.752;2023-05-07T01:07:36;25.37;;;19.57;;
9467;SDS011;4772;52.382;9.752;2023-05-07T01:10:03;25.37;;;20.37;;
9467;SDS011;4772;52.382;9.752;2023-05-07T01:12:29;26.17;;;21.13;;
9467;SDS011;4772;52.382;9.752;2023-05-07T01:14:57;27.00;;;20.00;;
9467;SDS011;4772;52.382;9.752;2023-05-07T01:17:23;24.87;;;19.70;;
9467;SDS011;4772;52.382;9.752;2023-05-07T01:19:49;25.50;;;20.00;;
9467;SDS011;4772;52.382;9.752;2023-05-07T01:22:16;27.43;;;21.00;;
9467;SDS011;4772;52.382;9.752;2023-05-07T01:24:44;26.33;;;21.90;;
9467;SDS011;4772;52.382;9.752;2023-05-07T01:27:10;28.73;;;20.60;;
9467;SDS011;4772;52.382;9.752;2023-05-07T01:29:36;29.30;;;22.00;;
9467;SDS011;4772;52.382;9.752;2023-05-07T01:32:02;25.40;;;21.10;;
9467;SDS011;4772;52.382;9.752;2023-05-07T01:34:30;29.63;;;21.60;;
9467;SDS011;4772;52.382;9.752;2023-05-07T01:36:57;27.27;;;22.67;;
9467;SDS011;4772;52.382;9.752;2023-05-07T01:39:24;24.60;;;21.63;;
9467;SDS011;4772;52.382;9.752;2023-05-07T01:41:52;28.40;;;19.67;;
9467;SDS011;4772;52.382;9.752;2023-05-07T01:44:18;28.37;;;21.57;;
9467;SDS011;4772;52.382;9.752;2023-05-07T01:46:45;26.93;;;21.43;;
9467;SDS011;4772;52.382;9.752;2023-05-07T01:49:11;32.43;;;22.13;;
9467;SDS011;4772;52.382;9.752;2023-05-07T01:51:38;26.90;;;21.27;;
9467;SDS011;4772;52.382;9.752;2023-05-07T01:54:05;29.73;;;21.83;;
9467;SDS011;4772;52.382;9.752;2023-05-07T01:56:31;26.70;;;21.03;;
9467;SDS011;4772;52.382;9.752;2023-05-07T01:58:57;24.63;;;19.83;;
9467;SDS011;4772;52.382;9.752;2023-05-07T02:01:23;26.50;;;20.13;;
9467;SDS011;4772;52.382;9.752;2023-05-07T02:03:49;23.93;;;19.60;;
9467;SDS011;4772;52.382;9.752;2023-05-07T02:06:15;25.80;;;17.83;;
9467;SDS011;4772;52.382;9.752;2023-05-07T02:08:41;22.30;;;16.97;;
9467;SDS011;4772;52.382;9.752;2023-05-07T02:11:07;24.57;;;18.63;;
9467;SDS011;4772;52.382;9.752;2023-05-07T02:13:33;21.73;;;16.33;;
9467;SDS011;4772;52.382;9.752;2023-05-07T02:15:59;19.60;;;16.17;;
9467;SDS011;4772;52.382;9.752;2023-05-07T02:18:25;16.53;;;13.83;;
9467;SDS011;4772;52.382;9.752;2023-05-07T02:20:51;19.20;;;14.80;;
9467;SDS011;4772;52.382;9.752;2023-05-07T02:23:17;16.80;;;13.27;;
9467;SDS011;4772;52.382;9.752;2023-05-07T02:25:43;17.03;;;13.17;;
9467;SDS011;4772;52.382;9.752;2023-05-07T02:28:10;15.43;;;12.60;;
9467;SDS011;4772;52.382;9.752;2023-05-07T02:30:36;15.07;;;12.10;;
9467;SDS011;4772;52.382;9.752;2023-05-07T02:33:02;19.27;;;13.33;;
9467;SDS011;4772;52.382;9.752;2023-05-07T02:35:28;14.03;;;12.23;;
9467;SDS011;4772;52.382;9.752;2023-05-07T02:37:54;12.47;;;10.67;;
9467;SDS011;4772;52.382;9.752;2023-05-07T02:40:20;13.30;;;11.10;;
9467;SDS011;4772;52.382;9.752;2023-05-07T02:42:46;13.47;;;10.70;;
9467;SDS011;4772;52.382;9.752;2023-05-07T02:45:12;12.30;;;10.57;;
9467;SDS011;4772;52.382;9.752;2023-05-07T02:47:39;14.30;;;9.90;;
9467;SDS011;4772;52.382;9.752;2023-05-07T02:50:05;13.13;;;10.43;;
9467;SDS011;4772;52.382;9.752;2023-05-07T02:52:31;13.37;;;10.53;;
9467;SDS011;4772;52.382;9.752;2023-05-07T02:54:57;12.50;;;10.67;;
9467;SDS011;4772;52.382;9.752;2023-05-07T02:57:23;12.27;;;10.13;;
9467;SDS011;4772;52.382;9.752;2023-05-07T02:59:49;12.20;;;10.43;;
9467;SDS011;4772;52.382;9.752;2023-05-07T03:02:15;11.57;;;10.03;;
9467;SDS011;4772;52.382;9.752;2023-05-07T03:04:41;13.07;;;10.90;;
9467;SDS011;4772;52.382;9.752;2023-05-07T03:07:07;13.27;;;11.00;;
9467;SDS011;4772;52.382;9.752;2023-05-07T03:09:33;13.13;;;11.20;;
9467;SDS011;4772;52.382;9.752;2023-05-07T03:11:59;12.77;;;11.47;;
9467;SDS011;4772;52.382;9.752;2023-05-07T03:14:26;13.73;;;11.63;;
9467;SDS011;4772;52.382;9.752;2023-05-07T03:16:52;12.47;;;11.00;;
9467;SDS011;4772;52.382;9.752;2023-05-07T03:19:18;13.57;;;11.30;;
9467;SDS011;4772;52.382;9.752;2023-05-07T03:21:44;12.90;;;11.10;;
9467;SDS011;4772;52.382;9.752;2023-05-07T03:24:10;13.27;;;11.30;;
9467;SDS011;4772;52.382;9.752;2023-05-07T03:26:36;13.60;;;10.70;;
9467;SDS011;4772;52.382;9.752;2023-05-07T03:29:02;14.30;;;11.50;;
9467;SDS011;4772;52.382;9.752;2023-05-07T03:31:28;13.40;;;11.33;;
9467;SDS011;4772;52.382;9.752;2023-05-07T03:33:56;13.47;;;10.43;;
9467;SDS011;4772;52.382;9.752;2023-05-07T03:36:22;15.13;;;11.47;;
9467;SDS011;4772;52.382;9.752;2023-05-07T03:38:49;15.40;;;10.77;;
9467;SDS011;4772;52.382;9.752;2023-05-07T03:41:15;12.93;;;10.73;;
9467;SDS011;4772;52.382;9.752;2023-05-07T03:43:41;11.40;;;10.13;;
9467;SDS011;4772;52.382;9.752;2023-05-07T03:46:07;13.50;;;11.40;;
9467;SDS011;4772;52.382;9.752;2023-05-07T03:48:33;12.20;;;10.63;;
9467;SDS011;4772;52.382;9.752;2023-05-07T03:50:59;15.17;;;10.83;;
9467;SDS011;4772;52.382;9.752;2023-05-07T03:53:25;13.83;;;10.33;;
9467;SDS011;4772;52.382;9.752;2023-05-07T03:55:51;12.87;;;10.27;;
9467;SDS011;4772;52.382;9.752;2023-05-07T03:58:17;12.33;;;10.53;;
9467;SDS011;4772;52.382;9.752;2023-05-07T04:00:43;13.43;;;10.83;;
9467;SDS011;4772;52.382;9.752;2023-05-07T04:03:08;11.93;;;10.50;;
9467;SDS011;4772;52.382;9.752;2023-05-07T04:05:34;11.77;;;9.63;;
9467;SDS011;4772;52.382;9.752;2023-05-07T04:08:00;13.03;;;10.00;;
9467;SDS011;4772;52.382;9.752;2023-05-07T04:10:27;12.57;;;10.00;;
9467;SDS011;4772;52.382;9.752;2023-05-07T04:12:53;11.30;;;9.07;;
9467;SDS011;4772;52.382;9.752;2023-05-07T04:15:19;12.80;;;10.37;;
9467;SDS011;4772;52.382;9.752;2023-05-07T04:17:45;13.00;;;10.37;;
9467;SDS011;4772;52.382;9.752;2023-05-07T04:20:14;12.43;;;10.07;;
9467;SDS011;4772;52.382;9.752;2023-05-07T04:22:41;11.83;;;10.37;;
9467;SDS011;4772;52.382;9.752;2023-05-07T04:25:07;11.57;;;10.07;;
9467;SDS011;4772;52.382;9.752;2023-05-07T04:27:36;12.13;;;10.20;;
9467;SDS011;4772;52.382;9.752;2023-05-07T04:30:03;12.37;;;9.67;;
9467;SDS011;4772;52.382;9.752;2023-05-07T04:32:29;12.73;;;10.00;;
9467;SDS011;4772;52.382;9.752;2023-05-07T04:34:56;12.90;;;10.30;;
9467;SDS011;4772;52.382;9.752;2023-05-07T04:37:22;11.97;;;10.07;;
9467;SDS011;4772;52.382;9.752;2023-05-07T04:39:48;14.00;;;10.27;;
9467;SDS011;4772;52.382;9.752;2023-05-07T04:42:14;12.07;;;10.40;;
9467;SDS011;4772;52.382;9.752;2023-05-07T04:44:41;12.07;;;10.70;;
9467;SDS011;4772;52.382;9.752;2023-05-07T04:47:06;12.87;;;10.57;;
9467;SDS011;4772;52.382;9.752;2023-05-07T04:49:32;14.73;;;12.07;;
9467;SDS011;4772;52.382;9.752;2023-05-07T04:51:58;12.27;;;11.03;;
9467;SDS011;4772;52.382;9.752;2023-05-07T04:54:25;12.73;;;11.33;;
9467;SDS011;4772;52.382;9.752;2023-05-07T04:56:51;12.83;;;9.60;;
9467;SDS011;4772;52.382;9.752;2023-05-07T04:59:17;12.20;;;10.63;;
9467;SDS011;4772;52.382;9.752;2023-05-07T05:01:43;11.97;;;10.47;;
9467;SDS011;4772;52.382;9.752;2023-05-07T05:04:09;12.23;;;10.03;;
9467;SDS011;4772;52.382;9.752;2023-05-07T05:06:35;11.43;;;10.00;;
9467;SDS011;4772;52.382;9.752;2023-05-07T05:09:01;10.80;;;9.53;;
9467;SDS011;4772;52.382;9.752;2023-05-07T05:11:27;12.43;;;9.90;;
9467;SDS011;4772;52.382;9.752;2023-05-07T05:13:53;10.90;;;9.80;;
9467;SDS011;4772;52.382;9.752;2023-05-07T05:16:19;11.70;;;9.17;;
9467;SDS011;4772;52.382;9.752;2023-05-07T05:18:45;11.20;;;9.37;;
9467;SDS011;4772;52.382;9.752;2023-05-07T05:21:11;11.97;;;10.07;;
9467;SDS011;4772;52.382;9.752;2023-05-07T05:23:37;10.37;;;9.33;;
9467;SDS011;4772;52.382;9.752;2023-05-07T05:26:04;9.60;;;8.50;;
9467;SDS011;4772;52.382;9.752;2023-05-07T05:28:30;10.33;;;9.00;;
9467;SDS011;4772;52.382;9.752;2023-05-07T05:30:56;10.27;;;9.03;;
9467;SDS011;4772;52.382;9.752;2023-05-07T05:33:21;11.03;;;8.77;;
9467;SDS011;4772;52.382;9.752;2023-05-07T05:35:48;9.90;;;8.53;;
9467;SDS011;4772;52.382;9.752;2023-05-07T05:38:15;10.60;;;9.50;;
9467;SDS011;4772;52.382;9.752;2023-05-07T05:40:41;11.17;;;9.73;;
9467;SDS011;4772;52.382;9.752;2023-05-07T05:43:07;9.83;;;8.70;;
9467;SDS011;4772;52.382;9.752;2023-05-07T05:45:33;10.27;;;9.03;;
9467;SDS011;4772;52.382;9.752;2023-05-07T05:47:59;9.70;;;8.80;;
9467;SDS011;4772;52.382;9.752;2023-05-07T05:50:25;9.63;;;8.63;;
9467;SDS011;4772;52.382;9.752;2023-05-07T05:52:51;9.50;;;8.50;;
9467;SDS011;4772;52.382;9.752;2023-05-07T05:55:17;9.60;;;8.60;;
9467;SDS011;4772;52.382;9.752;2023-05-07T05:57:43;10.60;;;8.90;;
9467;SDS011;4772;52.382;9.752;2023-05-07T06:00:09;9.83;;;8.53;;
9467;SDS011;4772;52.382;9.752;2023-05-07T06:02:35;10.17;;;8.83;;
9467;SDS011;4772;52.382;9.752;2023-05-07T06:05:01;10.97;;;8.50;;
9467;SDS011;4772;52.382;9.752;2023-05-07T06:07:27;8.87;;;7.97;;
9467;SDS011;4772;52.382;9.752;2023-05-07T06:09:53;10.10;;;8.47;;
9467;SDS011;4772;52.382;9.752;2023-05-07T06:12:19;9.43;;;8.47;;
9467;SDS011;4772;52.382;9.752;2023-05-07T06:14:45;8.67;;;7.77;;
9467;SDS011;4772;52.382;9.752;2023-05-07T06:17:11;11.30;;;9.43;;
9467;SDS011;4772;52.382;9.752;2023-05-07T06:19:37;9.17;;;7.93;;
9467;SDS011;4772;52.382;9.752;2023-05-07T06:22:03;9.83;;;8.83;;
9467;SDS011;4772;52.382;9.752;2023-05-07T06:24:29;9.07;;;8.17;;
9467;SDS011;4772;52.382;9.752;2023-05-07T06:26:55;8.77;;;7.90;;
9467;SDS011;4772;52.382;9.752;2023-05-07T06:29:21;9.13;;;8.23;;
9467;SDS011;4772;52.382;9.752;2023-05-07T06:31:46;10.40;;;7.43;;
9467;SDS011;4772;52.382;9.752;2023-05-07T06:34:12;9.30;;;8.37;;
9467;SDS011;4772;52.382;9.752;2023-05-07T06:36:41;8.00;;;7.27;;
9467;SDS011;4772;52.382;9.752;2023-05-07T06:39:07;10.50;;;7.93;;
9467;SDS011;4772;52.382;9.752;2023-05-07T06:41:34;8.23;;;7.43;;
9467;SDS011;4772;52.382;9.752;2023-05-07T06:44:00;8.90;;;8.03;;
9467;SDS011;4772;52.382;9.752;2023-05-07T06:46:27;8.43;;;7.57;;
9467;SDS011;4772;52.382;9.752;2023-05-07T06:48:53;9.13;;;7.97;;
9467;SDS011;4772;52.382;9.752;2023-05-07T06:51:19;8.50;;;7.70;;
9467;SDS011;4772;52.382;9.752;2023-05-07T06:53:45;9.03;;;8.07;;
9467;SDS011;4772;52.382;9.752;2023-05-07T06:56:11;8.77;;;7.87;;
9467;SDS011;4772;52.382;9.752;2023-05-07T06:58:37;9.40;;;8.53;;
9467;SDS011;4772;52.382;9.752;2023-05-07T07:01:03;8.73;;;7.93;;
9467;SDS011;4772;52.382;9.752;2023-05-07T07:03:29;9.77;;;8.73;;
9467;SDS011;4772;52.382;9.752;2023-05-07T07:05:55;10.10;;;9.10;;
9467;SDS011;4772;52.382;9.752;2023-05-07T07:08:21;10.43;;;9.40;;
9467;SDS011;4772;52.382;9.752;2023-05-07T07:10:47;11.07;;;9.97;;
9467;SDS011;4772;52.382;9.752;2023-05-07T07:13:13;10.17;;;9.07;;
9467;SDS011;4772;52.382;9.752;2023-05-07T07:15:39;11.17;;;10.10;;
9467;SDS011;4772;52.382;9.752;2023-05-07T07:18:06;12.10;;;11.00;;
9467;SDS011;4772;52.382;9.752;2023-05-07T07:20:32;11.57;;;10.30;;
9467;SDS011;4772;52.382;9.752;2023-05-07T07:22:58;11.60;;;10.50;;
9467;SDS011;4772;52.382;9.752;2023-05-07T07:25:24;12.13;;;10.93;;
9467;SDS011;4772;52.382;9.752;2023-05-07T07:27:50;11.60;;;10.50;;
9467;SDS011;4772;52.382;9.752;2023-05-07T07:30:16;11.77;;;10.67;;
9467;SDS011;4772;52.382;9.752;2023-05-07T07:32:43;11.23;;;10.10;;
9467;SDS011;4772;52.382;9.752;2023-05-07T07:35:09;11.33;;;10.33;;
9467;SDS011;4772;52.382;9.752;2023-05-07T07:37:35;11.90;;;10.70;;
9467;SDS011;4772;52.382;9.752;2023-05-07T07:40:01;11.20;;;10.17;;
9467;SDS011;4772;52.382;9.752;2023-05-07T07:42:28;12.97;;;10.30;;
9467;SDS011;4772;52.382;9.752;2023-05-07T07:44:54;12.20;;;11.00;;
9467;SDS011;4772;52.382;9.752;2023-05-07T07:47:22;11.93;;;10.83;;
9467;SDS011;4772;52.382;9.752;2023-05-07T07:49:48;10.67;;;9.57;;
9467;SDS011;4772;52.382;9.752;2023-05-07T07:52:14;9.30;;;8.40;;
9467;SDS011;4772;52.382;9.752;2023-05-07T07:54:40;10.80;;;9.70;;
9467;SDS011;4772;52.382;9.752;2023-05-07T07:57:06;10.83;;;9.83;;
9467;SDS011;4772;52.382;9.752;2023-05-07T07:59:32;10.77;;;9.67;;
9467;SDS011;4772;52.382;9.752;2023-05-07T08:01:58;10.83;;;9.83;;
9467;SDS011;4772;52.382;9.752;2023-05-07T08:04:24;10.10;;;9.10;;
9467;SDS011;4772;52.382;9.752;2023-05-07T08:06:50;9.63;;;8.73;;
9467;SDS011;4772;52.382;9.752;2023-05-07T08:09:16;9.50;;;8.67;;
9467;SDS011;4772;52.382;9.752;2023-05-07T08:11:42;9.27;;;8.37;;
9467;SDS011;4772;52.382;9.752;2023-05-07T08:14:08;9.37;;;8.57;;
9467;SDS011;4772;52.382;9.752;2023-05-07T08:16:34;9.13;;;8.23;;
9467;SDS011;4772;52.382;9.752;2023-05-07T08:19:00;9.10;;;8.30;;
9467;SDS011;4772;52.382;9.752;2023-05-07T08:21:26;13.07;;;8.57;;
9467;SDS011;4772;52.382;9.752;2023-05-07T08:23:52;9.07;;;8.17;;
9467;SDS011;4772;52.382;9.752;2023-05-07T08:26:18;10.13;;;8.37;;
9467;SDS011;4772;52.382;9.752;2023-05-07T08:28:44;11.23;;;8.03;;
9467;SDS011;4772;52.382;9.752;2023-05-07T08:31:10;9.10;;;8.27;;
9467;SDS011;4772;52.382;9.752;2023-05-07T08:33:36;9.87;;;8.90;;
9467;SDS011;4772;52.382;9.752;2023-05-07T08:36:03;10.37;;;8.60;;
9467;SDS011;4772;52.382;9.752;2023-05-07T08:38:29;9.87;;;8.03;;
9467;SDS011;4772;52.382;9.752;2023-05-07T08:40:55;8.43;;;7.63;;
9467;SDS011;4772;52.382;9.752;2023-05-07T08:43:21;9.13;;;8.13;;
9467;SDS011;4772;52.382;9.752;2023-05-07T08:45:49;8.50;;;7.60;;
9467;SDS011;4772;52.382;9.752;2023-05-07T08:48:15;8.97;;;8.07;;
9467;SDS011;4772;52.382;9.752;2023-05-07T08:50:41;8.50;;;7.70;;
9467;SDS011;4772;52.382;9.752;2023-05-07T08:53:07;9.03;;;8.23;;
9467;SDS011;4772;52.382;9.752;2023-05-07T08:55:34;8.57;;;7.77;;
9467;SDS011;4772;52.382;9.752;2023-05-07T08:58:00;9.17;;;8.27;;
9467;SDS011;4772;52.382;9.752;2023-05-07T09:00:27;8.30;;;7.50;;
9467;SDS011;4772;52.382;9.752;2023-05-07T09:02:53;8.37;;;7.57;;
9467;SDS011;4772;52.382;9.752;2023-05-07T09:05:19;8.93;;;8.03;;
9467;SDS011;4772;52.382;9.752;2023-05-07T09:07:45;8.93;;;8.07;;
9467;SDS011;4772;52.382;9.752;2023-05-07T09:10:12;9.17;;;8.27;;
9467;SDS011;4772;52.382;9.752;2023-05-07T09:12:38;10.03;;;9.03;;
9467;SDS011;4772;52.382;9.752;2023-05-07T09:15:04;9.37;;;8.47;;
9467;SDS011;4772;52.382;9.752;2023-05-07T09:17:30;10.37;;;9.37;;
9467;SDS011;4772;52.382;9.752;2023-05-07T09:20:01;9.50;;;8.60;;
9467;SDS011;4772;52.382;9.752;2023-05-07T09:22:29;9.80;;;8.80;;
9467;SDS011;4772;52.382;9.752;2023-05-07T09:24:56;10.33;;;8.80;;
9467;SDS011;4772;52.382;9.752;2023-05-07T09:27:22;8.97;;;8.13;;
9467;SDS011;4772;52.382;9.752;2023-05-07T09:29:48;9.77;;;8.20;;
9467;SDS011;4772;52.382;9.752;2023-05-07T09:32:15;10.10;;;9.10;;
9467;SDS011;4772;52.382;9.752;2023-05-07T09:34:41;10.03;;;9.13;;
9467;SDS011;4772;52.382;9.752;2023-05-07T09:37:08;9.90;;;8.33;;
9467;SDS011;4772;52.382;9.752;2023-05-07T09:39:44;9.13;;;8.23;;
9467;SDS011;4772;52.382;9.752;2023-05-07T09:42:11;9.33;;;8.43;;
9467;SDS011;4772;52.382;9.752;2023-05-07T09:44:37;8.47;;;7.70;;
9467;SDS011;4772;52.382;9.752;2023-05-07T09:47:07;8.93;;;8.13;;
9467;SDS011;4772;52.382;9.752;2023-05-07T09:49:34;9.03;;;8.13;;
9467;SDS011;4772;52.382;9.752;2023-05-07T09:52:01;9.00;;;8.20;;
9467;SDS011;4772;52.382;9.752;2023-05-07T09:54:28;9.40;;;8.50;;
9467;SDS011;4772;52.382;9.752;2023-05-07T09:56:55;10.30;;;8.80;;
9467;SDS011;4772;52.382;9.752;2023-05-07T09:59:22;10.07;;;8.93;;
9467;SDS011;4772;52.382;9.752;2023-05-07T10:01:48;9.60;;;8.63;;
9467;SDS011;4772;52.382;9.752;2023-05-07T10:04:14;9.87;;;8.90;;
9467;SDS011;4772;52.382;9.752;2023-05-07T10:06:41;10.73;;;8.73;;
9467;SDS011;4772;52.382;9.752;2023-05-07T10:09:08;14.03;;;9.67;;
9467;SDS011;4772;52.382;9.752;2023-05-07T10:11:35;10.53;;;9.53;;
9467;SDS011;4772;52.382;9.752;2023-05-07T10:14:01;9.90;;;8.90;;
9467;SDS011;4772;52.382;9.752;2023-05-07T10:16:31;10.07;;;9.07;;
9467;SDS011;4772;52.382;9.752;2023-05-07T10:19:01;9.20;;;8.33;;
9467;SDS011;4772;52.382;9.752;2023-05-07T10:21:27;10.33;;;9.33;;
9467;SDS011;4772;52.382;9.752;2023-05-07T10:23:58;10.03;;;8.93;;
9467;SDS011;4772;52.382;9.752;2023-05-07T10:26:25;10.13;;;9.10;;
9467;SDS011;4772;52.382;9.752;2023-05-07T10:28:53;9.30;;;8.40;;
9467;SDS011;4772;52.382;9.752;2023-05-07T10:32:07;8.83;;;8.03;;
9467;SDS011;4772;52.382;9.752;2023-05-07T10:34:10;9.77;;;8.97;;
9467;SDS011;4772;52.382;9.752;2023-05-07T10:36:36;9.20;;;8.40;;
9467;SDS011;4772;52.382;9.752;2023-05-07T10:39:04;9.00;;;8.07;;
9467;SDS011;4772;52.382;9.752;2023-05-07T10:41:30;8.93;;;8.13;;
9467;SDS011;4772;52.382;9.752;2023-05-07T10:43:56;8.60;;;7.80;;
9467;SDS011;4772;52.382;9.752;2023-05-07T10:46:26;9.03;;;8.13;;
9467;SDS011;4772;52.382;9.752;2023-05-07T10:49:13;9.13;;;8.27;;
9467;SDS011;4772;52.382;9.752;2023-05-07T10:51:39;7.53;;;6.83;;
9467;SDS011;4772;52.382;9.752;2023-05-07T10:56:34;7.77;;;7.07;;
9467;SDS011;4772;52.382;9.752;2023-05-07T11:01:49;8.10;;;7.40;;
9467;SDS011;4772;52.382;9.752;2023-05-07T11:04:15;7.77;;;6.97;;
9467;SDS011;4772;52.382;9.752;2023-05-07T11:06:47;7.47;;;6.87;;
9467;SDS011;4772;52.382;9.752;2023-05-07T11:09:53;8.10;;;7.33;;
9467;SDS011;4772;52.382;9.752;2023-05-07T11:12:14;7.33;;;6.63;;
9467;SDS011;4772;52.382;9.752;2023-05-07T11:14:44;7.17;;;6.47;;
9467;SDS011;4772;52.382;9.752;2023-05-07T11:17:14;6.80;;;6.23;;
9467;SDS011;4772;52.382;9.752;2023-05-07T11:19:50;7.30;;;6.60;;
9467;SDS011;4772;52.382;9.752;2023-05-07T11:25:04;7.63;;;6.77;;
9467;SDS011;4772;52.382;9.752;2023-05-07T11:27:31;8.10;;;7.30;;
9467;SDS011;4772;52.382;9.752;2023-05-07T11:29:57;8.03;;;7.07;;
9467;SDS011;4772;52.382;9.752;2023-05-07T11:32:24;7.27;;;6.57;;
9467;SDS011;4772;52.382;9.752;2023-05-07T11:34:53;7.40;;;6.70;;
9467;SDS011;4772;52.382;9.752;2023-05-07T11:37:20;7.43;;;6.57;;
9467;SDS011;4772;52.382;9.752;2023-05-07T11:39:46;7.17;;;6.57;;
9467;SDS011;4772;52.382;9.752;2023-05-07T11:42:25;7.17;;;6.57;;
9467;SDS011;4772;52.382;9.752;2023-05-07T11:44:51;7.57;;;6.80;;
9467;SDS011;4772;52.382;9.752;2023-05-07T11:47:18;6.93;;;6.33;;
9467;SDS011;4772;52.382;9.752;2023-05-07T11:49:53;7.47;;;6.73;;
9467;SDS011;4772;52.382;9.752;2023-05-07T11:52:24;6.57;;;5.97;;
9467;SDS011;4772;52.382;9.752;2023-05-07T11:54:50;7.17;;;6.30;;
9467;SDS011;4772;52.382;9.752;2023-05-07T11:57:17;6.17;;;5.67;;
9467;SDS011;4772;52.382;9.752;2023-05-07T11:59:43;6.20;;;5.60;;
9467;SDS011;4772;52.382;9.752;2023-05-07T12:02:09;6.10;;;5.60;;
9467;SDS011;4772;52.382;9.752;2023-05-07T12:04:36;6.70;;;6.10;;
9467;SDS011;4772;52.382;9.752;2023-05-07T12:07:03;5.83;;;5.33;;
9467;SDS011;4772;52.382;9.752;2023-05-07T12:09:29;7.53;;;5.43;;
9467;SDS011;4772;52.382;9.752;2023-05-07T12:12:02;6.47;;;5.77;;
9467;SDS011;4772;52.382;9.752;2023-05-07T12:14:28;6.33;;;5.83;;
9467;SDS011;4772;52.382;9.752;2023-05-07T12:16:55;6.47;;;5.87;;
9467;SDS011;4772;52.382;9.752;2023-05-07T12:19:21;5.90;;;5.40;;
9467;SDS011;4772;52.382;9.752;2023-05-07T12:21:47;5.80;;;5.30;;
9467;SDS011;4772;52.382;9.752;2023-05-07T12:24:16;5.53;;;5.03;;
9467;SDS011;4772;52.382;9.752;2023-05-07T12:26:43;5.70;;;5.30;;
9467;SDS011;4772;52.382;9.752;2023-05-07T12:29:09;6.13;;;5.57;;
9467;SDS011;4772;52.382;9.752;2023-05-07T12:31:35;5.73;;;5.23;;
9467;SDS011;4772;52.382;9.752;2023-05-07T12:34:04;5.77;;;5.27;;
9467;SDS011;4772;52.382;9.752;2023-05-07T12:36:37;6.60;;;5.13;;
9467;SDS011;4772;52.382;9.752;2023-05-07T12:39:04;17.30;;;5.30;;
9467;SDS011;4772;52.382;9.752;2023-05-07T12:41:30;5.27;;;4.77;;
9467;SDS011;4772;52.382;9.752;2023-05-07T12:44:01;5.50;;;5.10;;
9467;SDS011;4772;52.382;9.752;2023-05-07T12:46:30;5.17;;;4.67;;
9467;SDS011;4772;52.382;9.752;2023-05-07T12:48:56;5.30;;;4.80;;
9467;SDS011;4772;52.382;9.752;2023-05-07T12:51:22;5.13;;;4.73;;
9467;SDS011;4772;52.382;9.752;2023-05-07T12:53:48;5.20;;;4.80;;
9467;SDS011;4772;52.382;9.752;2023-05-07T12:56:15;5.70;;;5.20;;
9467;SDS011;4772;52.382;9.752;2023-05-07T12:58:41;5.67;;;5.17;;
9467;SDS011;4772;52.382;9.752;2023-05-07T13:01:07;5.40;;;5.00;;
9467;SDS011;4772;52.382;9.752;2023-05-07T13:03:35;5.00;;;4.60;;
9467;SDS011;4772;52.382;9.752;2023-05-07T13:06:02;6.27;;;5.67;;
9467;SDS011;4772;52.382;9.752;2023-05-07T13:08:32;6.23;;;5.73;;
9467;SDS011;4772;52.382;9.752;2023-05-07T13:10:59;6.47;;;5.97;;
9467;SDS011;4772;52.382;9.752;2023-05-07T13:13:32;7.13;;;6.53;;
9467;SDS011;4772;52.382;9.752;2023-05-07T13:15:58;6.63;;;6.10;;
9467;SDS011;4772;52.382;9.752;2023-05-07T13:18:25;6.70;;;6.10;;
9467;SDS011;4772;52.382;9.752;2023-05-07T13:20:51;6.93;;;6.33;;
9467;SDS011;4772;52.382;9.752;2023-05-07T13:23:17;6.50;;;5.90;;
9467;SDS011;4772;52.382;9.752;2023-05-07T13:25:43;7.27;;;6.00;;
9467;SDS011;4772;52.382;9.752;2023-05-07T13:28:09;5.60;;;5.10;;
9467;SDS011;4772;52.382;9.752;2023-05-07T13:30:35;5.30;;;4.80;;
9467;SDS011;4772;52.382;9.752;2023-05-07T13:33:01;5.40;;;4.90;;
9467;SDS011;4772;52.382;9.752;2023-05-07T13:35:27;5.80;;;5.30;;
9467;SDS011;4772;52.382;9.752;2023-05-07T13:37:53;6.20;;;5.57;;
9467;SDS011;4772;52.382;9.752;2023-05-07T13:40:23;6.57;;;5.87;;
9467;SDS011;4772;52.382;9.752;2023-05-07T13:42:49;5.93;;;5.47;;
9467;SDS011;4772;52.382;9.752;2023-05-07T13:45:16;5.80;;;5.40;;
9467;SDS011;4772;52.382;9.752;2023-05-07T13:47:42;5.33;;;4.83;;
9467;SDS011;4772;52.382;9.752;2023-05-07T13:50:09;5.93;;;5.33;;
9467;SDS011;4772;52.382;9.752;2023-05-07T13:52:36;5.70;;;5.30;;
9467;SDS011;4772;52.382;9.752;2023-05-07T13:55:02;6.53;;;5.93;;
9467;SDS011;4772;52.382;9.752;2023-05-07T13:57:28;6.50;;;5.90;;
9467;SDS011;4772;52.382;9.752;2023-05-07T13:59:54;5.93;;;5.43;;
9467;SDS011;4772;52.382;9.752;2023-05-07T14:02:20;6.90;;;6.20;;
9467;SDS011;4772;52.382;9.752;2023-05-07T14:04:46;7.00;;;6.30;;
9467;SDS011;4772;52.382;9.752;2023-05-07T14:07:12;5.43;;;5.03;;
9467;SDS011;4772;52.382;9.752;2023-05-07T14:09:38;7.00;;;6.30;;
9467;SDS011;4772;52.382;9.752;2023-05-07T14:12:04;6.83;;;6.13;;
9467;SDS011;4772;52.382;9.752;2023-05-07T14:14:30;6.23;;;5.73;;
9467;SDS011;4772;52.382;9.752;2023-05-07T14:16:56;5.73;;;5.23;;
9467;SDS011;4772;52.382;9.752;2023-05-07T14:19:22;5.87;;;5.37;;
9467;SDS011;4772;52.382;9.752;2023-05-07T14:21:48;6.07;;;5.57;;
9467;SDS011;4772;52.382;9.752;2023-05-07T14:24:14;7.33;;;6.63;;
9467;SDS011;4772;52.382;9.752;2023-05-07T14:26:40;6.23;;;5.73;;
9467;SDS011;4772;52.382;9.752;2023-05-07T14:29:06;6.17;;;5.57;;
9467;SDS011;4772;52.382;9.752;2023-05-07T14:31:32;5.93;;;5.43;;
9467;SDS011;4772;52.382;9.752;2023-05-07T14:33:58;5.97;;;5.43;;
9467;SDS011;4772;52.382;9.752;2023-05-07T14:36:24;5.50;;;5.10;;
9467;SDS011;4772;52.382;9.752;2023-05-07T14:38:51;6.10;;;5.43;;
9467;SDS011;4772;52.382;9.752;2023-05-07T14:41:19;6.60;;;5.90;;
9467;SDS011;4772;52.382;9.752;2023-05-07T14:43:46;6.50;;;5.80;;
9467;SDS011;4772;52.382;9.752;2023-05-07T14:46:15;6.13;;;5.63;;
9467;SDS011;4772;52.382;9.752;2023-05-07T14:48:42;6.90;;;5.77;;
9467;SDS011;4772;52.382;9.752;2023-05-07T14:51:08;7.20;;;5.80;;
9467;SDS011;4772;52.382;9.752;2023-05-07T14:53:34;6.23;;;5.67;;
9467;SDS011;4772;52.382;9.752;2023-05-07T14:56:00;6.43;;;5.80;;
9467;SDS011;4772;52.382;9.752;2023-05-07T14:58:26;8.67;;;5.63;;
9467;SDS011;4772;52.382;9.752;2023-05-07T15:00:52;6.60;;;5.90;;
9467;SDS011;4772;52.382;9.752;2023-05-07T15:03:18;6.53;;;5.90;;
9467;SDS011;4772;52.382;9.752;2023-05-07T15:05:44;6.33;;;5.73;;
9467;SDS011;4772;52.382;9.752;2023-05-07T15:08:10;6.33;;;5.83;;